Gladehill, Virginia
Current Conditions -  °F | °C
As of 6:54 AM on Friday 28 Nov 2014 (Local Time) from KROA Reporting Station
Broken Clouds Broken Clouds  
Wind Chill: 25°   Ceiling: 4500
Heat Index: 31°   Visibility: 10mi
Dew Point: 15°   Wind: 6mph
Humidity: 52%   Direction: 290°WNW
Pressure: 30.32"   Gusts: NA
Location:  36.99°N, 79.77°W
Report Text: KROA 281154Z 29005KT 10SM BKN045 M01/M09 A3032 RMK AO2 SLP276 T10061094 10006 21011 53014
Loading
Personal Weather Stations






























Interactive Weather Map New forecast layout! Learn more

10-Day Weather Forecast

Advertisements
Track Severe Weather on mobile